createdAt,value
2023-03-17T00:04:39.790Z,3.58
2023-03-17T00:09:42.084Z,3.38
2023-03-17T00:14:46.859Z,3.58
2023-03-17T00:19:49.167Z,3.70
2023-03-17T00:24:51.435Z,3.58
2023-03-17T00:29:53.625Z,3.47
2023-03-17T00:34:56.551Z,3.35
2023-03-17T00:39:58.644Z,3.85
2023-03-17T00:45:01.445Z,3.60
2023-03-17T00:50:05.133Z,3.78
2023-03-17T00:55:09.183Z,3.33
2023-03-17T01:00:37.611Z,3.47
2023-03-17T01:05:40.995Z,4.10
2023-03-17T01:10:44.638Z,3.80
2023-03-17T01:15:48.641Z,3.40
2023-03-17T01:20:51.757Z,3.25
2023-03-17T01:25:54.512Z,3.40
2023-03-17T01:30:56.890Z,3.67
2023-03-17T01:35:59.287Z,3.65
2023-03-17T01:41:01.494Z,3.35
2023-03-17T01:46:29.287Z,3.70
2023-03-17T01:51:57.647Z,3.67
2023-03-17T01:57:10.560Z,3.33
2023-03-17T02:02:18.279Z,3.50
2023-03-17T02:07:23.211Z,3.50
2023-03-17T02:12:27.886Z,3.60
2023-03-17T02:17:30.117Z,3.60
2023-03-17T02:22:32.845Z,3.33
2023-03-17T02:27:39.573Z,3.60
2023-03-17T02:32:42.129Z,3.25
2023-03-17T02:37:44.246Z,3.78
2023-03-17T02:42:46.789Z,3.22
2023-03-17T02:47:51.522Z,3.50
2023-03-17T02:52:53.629Z,3.47
2023-03-17T02:57:55.742Z,3.17
2023-03-17T03:02:57.989Z,3.35
2023-03-17T03:08:00.144Z,3.30
2023-03-17T03:13:02.386Z,3.33
2023-03-17T03:18:04.443Z,3.30
2023-03-17T03:23:06.498Z,3.10
2023-03-17T03:28:10.145Z,3.17
2023-03-17T03:33:13.919Z,3.38
2023-03-17T03:38:16.049Z,3.17
2023-03-17T03:43:23.366Z,3.22
2023-03-17T03:48:26.075Z,3.47
2023-03-17T03:53:29.002Z,3.30
2023-03-17T03:58:31.119Z,3.22
2023-03-17T04:03:33.516Z,3.08
2023-03-17T04:08:35.797Z,3.30
2023-03-17T04:13:38.606Z,3.65
2023-03-17T04:18:41.444Z,3.30
2023-03-17T04:23:43.515Z,3.40
2023-03-17T04:28:45.640Z,3.20
2023-03-17T04:33:48.101Z,3.40
2023-03-17T04:38:50.221Z,3.38
2023-03-17T04:43:52.335Z,3.35
2023-03-17T04:48:54.515Z,3.47
2023-03-17T04:53:56.884Z,3.58
2023-03-17T04:58:59.001Z,3.65
2023-03-17T05:04:01.226Z,3.58
2023-03-17T05:09:04.098Z,3.38
2023-03-17T05:14:06.743Z,3.63
2023-03-17T05:19:09.162Z,3.53
2023-03-17T05:24:11.767Z,3.53
2023-03-17T05:29:14.647Z,3.42
2023-03-17T05:34:17.527Z,2.90
2023-03-17T05:39:19.588Z,3.25
2023-03-17T05:44:21.781Z,3.20
2023-03-17T05:49:24.594Z,3.10
2023-03-17T05:54:26.643Z,3.28
2023-03-17T05:59:29.154Z,3.30
2023-03-17T06:04:31.421Z,3.03
2023-03-17T06:09:33.950Z,3.42
2023-03-17T06:14:36.697Z,3.15
2023-03-17T06:19:39.036Z,3.10
2023-03-17T06:24:41.297Z,3.67
2023-03-17T06:29:43.657Z,3.20
2023-03-17T06:34:46.042Z,3.42
2023-03-17T06:39:48.457Z,3.63
2023-03-17T06:44:52.690Z,3.35
2023-03-17T06:49:54.761Z,3.25
2023-03-17T06:54:57.011Z,3.22
2023-03-17T06:59:59.197Z,3.38
2023-03-17T07:05:02.391Z,3.08
2023-03-17T07:10:05.825Z,3.25
2023-03-17T07:15:09.308Z,3.03
2023-03-17T07:20:11.985Z,3.55
2023-03-17T07:25:14.114Z,3.28
2023-03-17T07:30:19.236Z,3.38
2023-03-17T07:35:21.538Z,3.50
2023-03-17T07:40:24.214Z,10.20
2023-03-17T07:45:26.777Z,3.13
2023-03-17T07:50:29.061Z,3.05
2023-03-17T07:55:32.778Z,3.22
2023-03-17T08:00:35.731Z,3.55
2023-03-17T08:05:38.219Z,3.28
2023-03-17T08:10:40.389Z,3.38
2023-03-17T08:15:42.658Z,2.80
2023-03-17T08:20:44.983Z,3.88
2023-03-17T08:25:47.833Z,3.03
2023-03-17T08:30:50.765Z,3.10
2023-03-17T08:35:53.535Z,3.17
2023-03-17T08:41:01.632Z,3.03
2023-03-17T08:46:13.245Z,3.30
2023-03-17T08:51:18.395Z,2.90
2023-03-17T08:56:22.038Z,2.65
2023-03-17T09:01:25.178Z,2.70
2023-03-17T09:06:27.750Z,2.58
2023-03-17T09:11:32.807Z,2.80
2023-03-17T09:16:35.262Z,2.70
2023-03-17T09:21:37.836Z,2.78
2023-03-17T09:26:40.010Z,2.70
2023-03-17T09:31:43.162Z,2.70
2023-03-17T09:36:45.225Z,2.75
2023-03-17T09:42:24.409Z,2.55
2023-03-17T09:47:26.574Z,2.47
2023-03-17T09:52:31.277Z,2.55
2023-03-17T09:57:37.166Z,2.80
2023-03-17T10:02:39.229Z,2.60
2023-03-17T10:07:47.309Z,2.70
2023-03-17T10:13:19.472Z,2.90
2023-03-17T10:18:27.672Z,2.80
2023-03-17T10:23:36.522Z,3.03
2023-03-17T10:28:39.182Z,2.75
2023-03-17T10:33:41.835Z,2.67
2023-03-17T10:38:52.549Z,2.67
2023-03-17T10:43:54.619Z,3.00
2023-03-17T10:49:08.144Z,2.83
2023-03-17T10:54:17.639Z,10.32
2023-03-17T10:59:27.932Z,3.33
2023-03-17T11:04:35.907Z,3.00
2023-03-17T11:09:38.346Z,2.67
2023-03-17T11:14:44.135Z,2.97
2023-03-17T11:20:06.568Z,3.20
2023-03-17T11:25:09.575Z,3.00
2023-03-17T11:30:34.055Z,3.47
2023-03-17T11:35:36.116Z,3.03
2023-03-17T11:40:51.605Z,3.30
2023-03-17T11:46:02.747Z,3.40
2023-03-17T11:51:10.750Z,3.28
2023-03-17T11:56:38.346Z,3.45
2023-03-17T12:02:07.208Z,3.47
2023-03-17T12:07:23.706Z,3.47
2023-03-17T12:12:32.998Z,3.70
2023-03-17T12:17:42.665Z,3.63
2023-03-17T12:22:53.987Z,3.67
2023-03-17T12:28:25.255Z,4.10
2023-03-17T12:33:49.395Z,3.30
2023-03-17T12:39:24.629Z,3.70
2023-03-17T12:44:58.208Z,3.75
2023-03-17T12:50:19.261Z,3.78
2023-03-17T13:01:32.195Z,4.32
2023-03-17T13:06:45.114Z,3.80
2023-03-17T13:18:16.290Z,4.75
2023-03-17T13:23:23.421Z,4.20
2023-03-17T13:28:25.800Z,4.22
2023-03-17T13:33:31.189Z,4.18
2023-03-17T13:38:41.950Z,4.40
2023-03-17T13:43:56.903Z,4.45
2023-03-17T13:49:04.228Z,4.30
2023-03-17T13:54:40.921Z,4.63
2023-03-17T14:00:00.811Z,4.20
2023-03-17T14:05:06.564Z,4.70
2023-03-17T14:10:18.507Z,4.20
2023-03-17T14:15:48.101Z,4.57
2023-03-17T14:20:59.034Z,4.63
2023-03-17T14:26:03.965Z,4.40
2023-03-17T14:31:08.179Z,5.10
2023-03-17T14:36:14.583Z,4.43
2023-03-17T14:41:22.745Z,4.72
2023-03-17T14:46:33.260Z,4.75
2023-03-17T14:51:37.497Z,5.40
2023-03-17T14:56:45.812Z,4.78
2023-03-17T15:01:52.982Z,4.82
2023-03-17T15:06:56.291Z,5.20
2023-03-17T15:12:06.951Z,5.10
2023-03-17T15:17:41.638Z,5.63
2023-03-17T15:22:57.709Z,5.32
2023-03-17T15:28:00.147Z,4.80
2023-03-17T15:33:03.221Z,5.15
2023-03-17T15:38:06.369Z,5.20
2023-03-17T15:43:19.289Z,5.25
2023-03-17T15:48:23.867Z,4.95
2023-03-17T15:53:26.673Z,4.78
2023-03-17T15:58:28.771Z,4.80
2023-03-17T16:03:34.112Z,5.10
2023-03-17T16:08:37.638Z,4.90
2023-03-17T16:13:39.905Z,5.10
2023-03-17T16:18:42.251Z,5.38
2023-03-17T16:23:44.838Z,5.18
2023-03-17T16:28:49.135Z,5.25
2023-03-17T16:33:52.834Z,5.20
2023-03-17T16:38:55.026Z,32.35
2023-03-17T16:44:02.135Z,22.13
2023-03-17T16:49:05.904Z,13.75
2023-03-17T16:54:08.785Z,19.25
2023-03-17T16:59:19.764Z,19.95
2023-03-17T17:04:21.916Z,5.43
2023-03-17T17:09:24.245Z,4.88
2023-03-17T17:14:29.444Z,5.28
2023-03-17T17:19:31.582Z,7.43
2023-03-17T17:24:33.803Z,6.55
2023-03-17T17:29:36.350Z,5.38
2023-03-17T17:34:38.453Z,5.80
2023-03-17T17:39:40.629Z,5.47
2023-03-17T17:44:42.950Z,5.80
2023-03-17T17:49:45.440Z,6.85
2023-03-17T17:54:47.554Z,6.63
2023-03-17T17:59:56.592Z,6.57
2023-03-17T18:05:00.896Z,8.18
2023-03-17T18:10:04.634Z,8.05
2023-03-17T18:15:08.078Z,9.95
2023-03-17T18:20:18.679Z,7.43
2023-03-17T18:25:21.020Z,12.45
2023-03-17T18:30:29.715Z,11.02
2023-03-17T18:35:32.676Z,8.32
2023-03-17T18:40:36.029Z,7.22
2023-03-17T18:45:38.756Z,7.05
2023-03-17T18:50:40.906Z,6.63
2023-03-17T18:55:43.035Z,6.13
2023-03-17T19:00:45.287Z,6.07
2023-03-17T19:05:47.559Z,6.05
2023-03-17T19:10:50.078Z,5.63
2023-03-17T19:15:52.246Z,5.75
2023-03-17T19:20:56.237Z,6.50
2023-03-17T19:25:58.313Z,6.20
2023-03-17T19:31:00.755Z,6.30
2023-03-17T19:36:08.664Z,6.57
2023-03-17T19:41:10.782Z,6.03
2023-03-17T19:46:13.206Z,5.90
2023-03-17T19:51:15.433Z,6.15
2023-03-17T19:56:18.351Z,6.03
2023-03-17T20:01:20.892Z,6.22
2023-03-17T20:06:23.009Z,6.90
2023-03-17T20:11:25.184Z,6.63
2023-03-17T20:16:27.800Z,6.38
2023-03-17T20:21:30.095Z,7.13
2023-03-17T20:26:32.387Z,7.00
2023-03-17T20:31:35.742Z,7.57
2023-03-17T20:36:42.282Z,8.15
2023-03-17T20:41:44.427Z,7.63
2023-03-17T20:46:47.631Z,7.45
2023-03-17T20:51:49.807Z,7.30
2023-03-17T20:56:56.711Z,6.53
2023-03-17T21:01:59.137Z,7.63
2023-03-17T21:07:01.240Z,7.50
2023-03-17T21:12:03.430Z,5.80
2023-03-17T21:17:05.808Z,5.72
2023-03-17T21:22:08.158Z,6.72
2023-03-17T21:27:11.362Z,6.38
2023-03-17T21:32:13.636Z,5.57
2023-03-17T21:37:18.344Z,4.25
2023-03-17T21:42:20.544Z,3.92
2023-03-17T21:47:22.823Z,4.50
2023-03-17T21:52:26.080Z,4.10
2023-03-17T21:57:29.693Z,3.80
2023-03-17T22:02:31.775Z,4.03
2023-03-17T22:07:34.108Z,3.53
2023-03-17T22:12:36.633Z,4.07
2023-03-17T22:17:39.760Z,3.65
2023-03-17T22:22:41.813Z,4.10
2023-03-17T22:27:43.954Z,4.25
2023-03-17T22:32:46.488Z,3.97
2023-03-17T22:37:48.565Z,4.47
2023-03-17T22:42:51.626Z,4.50
2023-03-17T22:47:54.363Z,4.50
2023-03-17T22:52:56.401Z,5.18
2023-03-17T22:57:58.451Z,4.25
2023-03-17T23:03:00.512Z,3.70
2023-03-17T23:08:02.678Z,4.00
2023-03-17T23:13:06.380Z,3.63
2023-03-17T23:18:09.381Z,3.63
2023-03-17T23:23:12.282Z,4.03
2023-03-17T23:28:17.251Z,3.70
2023-03-17T23:33:21.643Z,3.70
2023-03-17T23:38:24.300Z,3.30
2023-03-17T23:43:26.577Z,3.28
2023-03-17T23:48:28.989Z,3.17
2023-03-17T23:53:31.518Z,2.80
2023-03-17T23:58:33.712Z,3.42
